Time;durP1;ratioP1;P1;durP2;ratioP2;P2;SDS_P1;SDS_P2;PMS_P1;PMS_P2;Temp;Humidity;BMP_temperature;BMP_pressure;BME280_temperature;BME280_humidity;BME280_pressure;Samples;Min_cycle;Max_cycle;Signal;HPM_P1;HPM_P2
2022/01/29 00:00:54;;;;;;;18.48;9.63;;;;;;;6.58;52.33;101030.59;5056224;28;20036;-81
2022/01/29 00:03:22;;;;;;;24.58;10.30;;;;;;;6.58;52.27;101029.72;5065643;28;20112;-83
2022/01/29 00:05:57;;;;;;;20.25;9.35;;;;;;;6.49;52.82;101046.31;5059503;28;20384;-84
2022/01/29 00:08:25;;;;;;;24.85;10.38;;;;;;;6.51;52.43;101050.59;5049462;28;20209;-83
2022/01/29 00:11:07;;;;;;;17.85;9.65;;;;;;;6.44;52.63;101048.38;5068473;28;20463;-84
2022/01/29 00:13:34;;;;;;;20.90;9.45;;;;;;;6.45;52.98;101056.28;5053732;28;20109;-82
2022/01/29 00:16:00;;;;;;;24.20;8.93;;;;;;;6.42;52.50;101051.13;5054208;28;20066;-82
2022/01/29 00:18:27;;;;;;;25.52;9.25;;;;;;;6.43;52.74;101052.88;5036094;28;20060;-82
2022/01/29 00:20:52;;;;;;;20.00;9.07;;;;;;;6.38;52.92;101068.31;5054168;28;20493;-83
2022/01/29 00:23:18;;;;;;;20.98;10.60;;;;;;;6.33;52.83;101078.38;5054311;28;20032;-83
2022/01/29 00:25:44;;;;;;;21.33;9.70;;;;;;;6.37;52.91;101073.72;5054076;28;20044;-83
2022/01/29 00:28:09;;;;;;;14.38;8.10;;;;;;;6.30;52.98;101073.19;5053900;28;20017;-82
2022/01/29 00:30:42;;;;;;;14.80;9.10;;;;;;;6.21;53.07;101083.56;5054457;28;20021;-81
2022/01/29 00:33:07;;;;;;;19.10;9.63;;;;;;;6.27;52.98;101089.41;5055508;28;20028;-82
2022/01/29 00:35:33;;;;;;;20.08;8.70;;;;;;;6.28;53.08;101091.13;5054084;28;20117;-82
2022/01/29 00:37:58;;;;;;;22.70;10.27;;;;;;;6.30;52.98;101081.22;5053877;28;20025;-83
2022/01/29 00:40:24;;;;;;;25.20;10.02;;;;;;;6.37;52.72;101095.09;5054528;28;20036;-81
2022/01/29 00:42:50;;;;;;;22.20;10.30;;;;;;;6.40;52.61;101087.78;5055475;28;20024;-83
2022/01/29 00:45:22;;;;;;;18.20;9.93;;;;;;;6.24;52.96;101068.22;5061737;28;20008;-84
2022/01/29 00:47:48;;;;;;;19.10;9.65;;;;;;;6.21;53.08;101073.72;5061312;28;20024;-83
2022/01/29 00:50:13;;;;;;;18.70;9.55;;;;;;;6.22;53.06;101079.94;5055093;28;20457;-82
2022/01/29 00:52:42;;;;;;;16.63;8.30;;;;;;;6.17;53.17;101065.97;5066865;28;20024;-84
2022/01/29 00:55:10;;;;;;;15.32;8.07;;;;;;;6.12;53.19;101060.03;5040129;28;20054;-82
2022/01/29 00:57:39;;;;;;;20.80;10.32;;;;;;;6.19;53.35;101067.63;5053251;28;20041;-80
2022/01/29 01:00:09;;;;;;;18.60;9.85;;;;;;;6.19;53.05;101046.25;5046975;28;20033;-85
2022/01/29 01:02:36;;;;;;;12.57;7.80;;;;;;;6.11;52.96;101029.81;5033214;28;20041;-83
2022/01/29 01:05:02;;;;;;;15.52;8.20;;;;;;;6.13;53.51;101035.06;5044824;28;20026;-84
2022/01/29 01:07:30;;;;;;;22.42;8.23;;;;;;;6.08;53.47;101040.66;5033203;28;20036;-83
2022/01/29 01:09:57;;;;;;;19.98;9.15;;;;;;;6.07;53.87;101044.28;5051609;28;20077;-85
2022/01/29 01:12:23;;;;;;;20.33;8.98;;;;;;;6.07;53.59;101044.28;5036409;28;20351;-82
2022/01/29 01:14:54;;;;;;;31.10;9.63;;;;;;;6.02;53.60;101025.00;5056341;28;20022;-82
2022/01/29 01:17:24;;;;;;;19.17;9.48;;;;;;;6.07;53.51;101022.03;5051917;28;20032;-84
2022/01/29 01:20:03;;;;;;;16.90;9.02;;;;;;;6.07;53.58;101020.25;5055609;28;20021;-84
2022/01/29 01:22:33;;;;;;;21.73;8.98;;;;;;;5.77;53.67;100988.09;5053072;28;20056;-82
2022/01/29 01:25:03;;;;;;;16.17;8.73;;;;;;;5.95;53.89;101024.47;5044523;28;20081;-81
2022/01/29 01:27:32;;;;;;;21.20;8.38;;;;;;;5.95;53.92;101028.94;5037624;28;20036;-82
2022/01/29 01:33:03;;;;;;;20.00;9.55;;;;;;;5.78;54.11;101005.81;5056861;28;20036;-84
2022/01/29 01:35:34;;;;;;;17.50;8.38;;;;;;;5.74;54.14;101024.75;5025758;28;20026;-82
2022/01/29 01:40:31;;;;;;;20.57;8.43;;;;;;;5.89;54.47;101055.97;5013298;28;20032;-82
2022/01/29 01:43:00;;;;;;;23.15;8.75;;;;;;;5.77;54.59;101037.94;5013013;28;20257;-83
2022/01/29 01:45:27;;;;;;;17.88;8.52;;;;;;;5.81;54.33;101043.00;5012920;28;20045;-82
2022/01/29 01:47:53;;;;;;;19.33;9.82;;;;;;;5.81;54.45;101044.84;5013061;28;20026;-82
2022/01/29 01:50:18;;;;;;;19.77;8.32;;;;;;;5.83;54.48;101045.59;5013178;28;20026;-82
2022/01/29 01:52:44;;;;;;;23.83;8.77;;;;;;;5.71;54.64;101048.94;5013211;28;20026;-82
2022/01/29 01:55:09;;;;;;;16.73;8.07;;;;;;;5.67;55.04;101055.38;5020435;28;20053;-82
2022/01/29 01:57:35;;;;;;;17.52;8.95;;;;;;;5.69;54.88;101053.53;5032560;28;20025;-83
2022/01/29 02:00:01;;;;;;;17.85;9.45;;;;;;;5.66;54.75;101048.31;5032684;28;20021;-83
2022/01/29 02:02:26;;;;;;;17.95;8.48;;;;;;;5.70;54.99;101057.88;5032966;28;20061;-83
2022/01/29 02:04:52;;;;;;;22.52;8.70;;;;;;;5.65;54.74;101055.50;5015312;28;20104;-82
2022/01/29 02:07:19;;;;;;;23.70;9.02;;;;;;;5.72;54.78;101069.38;5033403;28;20403;-82
2022/01/29 02:09:44;;;;;;;18.50;8.95;;;;;;;5.78;54.84;101079.69;5015456;28;20864;-82
2022/01/29 02:12:11;;;;;;;16.65;8.50;;;;;;;5.74;54.63;101064.78;5032433;28;20022;-82
2022/01/29 02:14:38;;;;;;;20.85;8.70;;;;;;;5.79;54.53;101065.38;5033111;28;20022;-82
2022/01/29 02:17:05;;;;;;;16.30;9.20;;;;;;;5.67;54.71;101060.72;5032550;28;20032;-82
2022/01/29 02:19:31;;;;;;;17.10;9.05;;;;;;;5.74;54.91;101080.81;5032285;28;20029;-82
2022/01/29 02:21:57;;;;;;;16.70;9.13;;;;;;;5.78;54.78;101082.38;5032681;28;20402;-82
2022/01/29 02:24:23;;;;;;;17.85;9.13;;;;;;;5.65;54.79;101068.84;5032369;28;20081;-82
2022/01/29 02:26:49;;;;;;;18.63;9.68;;;;;;;5.73;54.64;101082.59;5032062;28;20029;-83
2022/01/29 02:29:15;;;;;;;20.90;9.07;;;;;;;5.79;54.65;101094.75;5032031;28;20471;-83
2022/01/29 02:31:54;;;;;;;23.23;10.38;;;;;;;5.83;54.57;101086.50;5032245;28;20032;-83
2022/01/29 02:34:21;;;;;;;15.20;8.20;;;;;;;5.73;54.33;101081.75;5032189;28;20048;-83
2022/01/29 02:36:47;;;;;;;17.92;9.40;;;;;;;5.65;54.82;101068.84;5037242;28;20056;-83
2022/01/29 02:39:14;;;;;;;18.73;9.32;;;;;;;5.71;54.90;101080.97;5033989;28;20808;-81
2022/01/29 02:41:43;;;;;;;23.75;9.52;;;;;;;5.69;54.76;101080.19;5052234;28;20028;-82
2022/01/29 02:44:10;;;;;;;19.40;10.00;;;;;;;5.75;54.94;101080.72;5052352;28;20467;-81
2022/01/29 02:49:16;;;;;;;20.35;9.73;;;;;;;5.82;54.61;101086.56;5052617;28;20166;-81
2022/01/29 02:51:47;;;;;;;18.27;8.63;;;;;;;5.80;54.53;101083.16;5067623;28;20021;-81
2022/01/29 02:54:13;;;;;;;19.33;8.27;;;;;;;5.79;54.70;101086.75;5068718;28;20037;-81
2022/01/29 02:56:39;;;;;;;19.88;9.43;;;;;;;5.74;54.83;101088.81;5049736;28;20049;-81
2022/01/29 02:59:04;;;;;;;21.90;9.88;;;;;;;5.78;54.99;101085.03;5056151;28;20036;-81
2022/01/29 03:01:29;;;;;;;20.00;10.10;;;;;;;5.80;55.13;101081.34;5056233;28;20044;-81
2022/01/29 03:03:55;;;;;;;17.75;9.02;;;;;;;5.82;54.81;101076.78;5055620;28;20031;-81
2022/01/29 03:06:21;;;;;;;21.42;8.98;;;;;;;5.71;54.91;101063.16;5037685;28;20108;-82
2022/01/29 03:08:46;;;;;;;20.95;8.98;;;;;;;5.80;54.77;101078.66;5056308;28;20032;-81
2022/01/29 03:11:12;;;;;;;17.75;9.20;;;;;;;5.83;54.97;101074.97;5056194;28;20387;-81
2022/01/29 03:13:38;;;;;;;19.48;9.43;;;;;;;5.80;54.55;101078.66;5055949;28;20406;-83
2022/01/29 03:16:04;;;;;;;22.00;11.68;;;;;;;5.74;54.94;101087.00;5057457;28;20048;-83
2022/01/29 03:18:30;;;;;;;21.45;10.05;;;;;;;5.55;55.04;101069.38;5042002;28;20036;-82
2022/01/29 03:20:55;;;;;;;18.67;9.65;;;;;;;5.60;55.28;101091.34;5042321;28;20114;-83
2022/01/29 03:23:21;;;;;;;27.15;9.75;;;;;;;5.57;55.38;101083.50;5042896;28;20037;-83
2022/01/29 03:25:47;;;;;;;31.67;8.45;;;;;;;5.71;55.15;101096.97;5061509;28;20029;-83
2022/01/29 03:28:13;;;;;;;16.85;9.73;;;;;;;5.61;55.12;101099.28;5061691;28;20048;-83
2022/01/29 03:30:39;;;;;;;24.00;10.50;;;;;;;5.66;55.30;101101.69;5061281;28;20063;-83
2022/01/29 03:33:04;;;;;;;23.98;9.32;;;;;;;5.61;55.17;101096.63;5061091;28;20036;-83
2022/01/29 03:35:30;;;;;;;16.25;9.18;;;;;;;5.63;55.30;101099.19;5062631;28;20029;-83
2022/01/29 03:37:56;;;;;;;18.05;10.13;;;;;;;5.64;55.23;101106.25;5062472;28;20039;-82
2022/01/29 03:40:22;;;;;;;23.00;10.38;;;;;;;5.63;55.13;101096.50;5060534;28;20056;-83
2022/01/29 03:43:01;;;;;;;18.88;10.32;;;;;;;5.53;55.21;101116.66;5043777;28;20525;-83
2022/01/29 03:45:26;;;;;;;20.30;9.60;;;;;;;5.38;55.60;101112.97;5043430;28;20028;-82
2022/01/29 03:47:51;;;;;;;24.40;11.05;;;;;;;5.33;55.87;101121.22;5056257;28;20025;-82
2022/01/29 03:50:17;;;;;;;27.88;12.65;;;;;;;5.30;56.17;101126.69;5059307;28;20048;-83
2022/01/29 03:52:42;;;;;;;26.45;12.88;;;;;;;5.29;56.22;101135.63;5059569;28;20082;-83
2022/01/29 03:55:08;;;;;;;22.30;10.77;;;;;;;5.18;56.22;101121.13;5059069;28;20025;-83
2022/01/29 03:57:33;;;;;;;19.30;9.68;;;;;;;5.26;56.09;101151.78;5040638;28;20048;-80
2022/01/29 04:00:01;;;;;;;23.10;10.00;;;;;;;5.28;56.14;101143.72;5055811;28;20028;-81
2022/01/29 04:02:27;;;;;;;21.10;10.05;;;;;;;5.16;56.81;101149.69;5037548;28;20033;-83
2022/01/29 04:04:52;;;;;;;18.88;10.23;;;;;;;5.25;56.58;101155.41;5054344;28;20032;-81
2022/01/29 04:07:18;;;;;;;19.92;11.18;;;;;;;5.26;56.45;101141.13;5054014;28;20052;-81
2022/01/29 04:09:49;;;;;;;18.88;9.50;;;;;;;5.35;56.44;101156.66;5054274;28;20032;-82
2022/01/29 04:12:15;;;;;;;23.30;10.90;;;;;;;5.20;56.47;101151.25;5057195;28;20060;-81
2022/01/29 04:14:41;;;;;;;31.92;14.63;;;;;;;5.13;56.72;101165.84;5054169;28;20118;-81
2022/01/29 04:17:07;;;;;;;23.65;13.40;;;;;;;5.08;56.72;101174.06;5054226;28;20123;-81
2022/01/29 04:19:34;;;;;;;21.50;10.75;;;;;;;5.07;57.01;101166.16;5054234;28;20028;-82
2022/01/29 04:22:00;;;;;;;20.77;10.43;;;;;;;5.03;57.44;101165.44;5054323;28;20025;-81
2022/01/29 04:24:26;;;;;;;21.25;10.00;;;;;;;5.07;57.21;101167.00;5054411;28;20025;-81
2022/01/29 04:26:51;;;;;;;20.63;10.80;;;;;;;4.99;57.36;101147.84;5055157;28;20027;-82
2022/01/29 04:29:17;;;;;;;23.83;11.48;;;;;;;5.03;57.13;101167.22;5059848;28;20029;-82
2022/01/29 04:34:08;;;;;;;20.55;10.82;;;;;;;5.01;57.10;101161.13;5062877;28;20532;-82
2022/01/29 04:36:34;;;;;;;17.25;9.60;;;;;;;5.07;57.39;101167.00;5054319;28;20454;-81
2022/01/29 04:39:00;;;;;;;28.02;10.68;;;;;;;4.97;57.43;101157.75;5054001;28;20495;-81
2022/01/29 04:41:25;;;;;;;18.42;9.13;;;;;;;5.06;57.16;101165.28;5054639;28;20425;-82
2022/01/29 04:43:51;;;;;;;15.50;9.15;;;;;;;5.01;56.91;101180.66;5054401;28;20541;-84
2022/01/29 04:46:16;;;;;;;19.35;10.32;;;;;;;5.04;57.07;101192.97;5053838;28;20028;-82
2022/01/29 04:48:41;;;;;;;17.02;9.40;;;;;;;5.06;57.44;101188.41;5053569;28;20036;-82
2022/01/29 04:51:07;;;;;;;19.75;10.27;;;;;;;5.02;57.11;101190.34;5053801;28;20025;-82
2022/01/29 04:53:32;;;;;;;22.05;8.32;;;;;;;5.03;57.51;101197.41;5054339;28;20074;-82
2022/01/29 04:55:58;;;;;;;21.02;9.40;;;;;;;5.02;57.09;101193.03;5047847;28;20821;-83
2022/01/29 04:58:24;;;;;;;19.00;9.40;;;;;;;5.04;56.94;101190.28;5033808;28;20025;-82
2022/01/29 05:00:50;;;;;;;23.50;8.32;;;;;;;5.05;56.85;101200.88;5033546;28;20401;-82
2022/01/29 05:03:16;;;;;;;24.20;9.20;;;;;;;5.07;56.85;101199.00;5033408;28;20112;-82
2022/01/29 05:05:43;;;;;;;17.58;9.68;;;;;;;5.05;56.85;101208.00;5033290;28;20064;-81
2022/01/29 05:08:09;;;;;;;21.60;9.75;;;;;;;4.99;57.08;101205.63;5033537;28;20025;-81
2022/01/29 05:10:35;;;;;;;23.20;10.50;;;;;;;5.07;56.94;101215.00;5015491;28;20079;-81
2022/01/29 05:13:05;;;;;;;18.85;9.00;;;;;;;5.09;57.04;101213.13;5033142;28;20035;-81
2022/01/29 05:15:47;;;;;;;19.45;9.82;;;;;;;5.11;56.71;101221.88;5032943;28;20377;-81
2022/01/29 05:29:10;;;;;;;20.83;11.70;;;;;;;4.77;57.99;101224.50;5033467;28;20032;-82
2022/01/29 05:31:38;;;;;;;24.67;12.15;;;;;;;4.73;58.07;101217.56;5032956;28;20030;-83
2022/01/29 05:34:04;;;;;;;22.00;11.00;;;;;;;4.78;57.88;101232.41;5033100;28;20041;-84
2022/01/29 05:36:29;;;;;;;19.02;10.52;;;;;;;4.77;57.71;101235.16;5030267;28;20036;-83
2022/01/29 05:38:55;;;;;;;22.38;9.88;;;;;;;4.80;57.75;101241.16;5027676;28;20419;-84
2022/01/29 05:41:21;;;;;;;37.95;16.40;;;;;;;4.64;58.26;101244.66;5032591;28;20101;-85
2022/01/29 05:43:47;;;;;;;24.52;11.30;;;;;;;4.69;58.49;101245.28;5033043;28;20087;-84
2022/01/29 05:46:15;;;;;;;21.75;10.52;;;;;;;4.76;58.21;101252.94;5014756;28;20029;-83
2022/01/29 05:48:41;;;;;;;19.67;11.82;;;;;;;4.66;58.19;101235.66;5033955;28;20057;-84
2022/01/29 05:51:08;;;;;;;22.90;11.00;;;;;;;4.67;58.08;101252.50;5029816;28;20029;-78
2022/01/29 05:53:33;;;;;;;23.83;11.60;;;;;;;4.66;58.51;101258.75;5027382;28;20028;-78
2022/01/29 05:55:59;;;;;;;25.52;12.57;;;;;;;4.67;58.56;101257.81;5037269;28;20056;-77
2022/01/29 05:58:25;;;;;;;28.80;12.82;;;;;;;4.77;58.58;101272.44;5052139;28;20029;-85
2022/01/29 06:00:50;;;;;;;26.80;12.00;;;;;;;4.82;58.25;101262.44;5035739;28;20025;-87
2022/01/29 06:03:16;;;;;;;32.90;13.77;;;;;;;4.85;58.19;101265.81;5053678;28;20024;-86
2022/01/29 06:05:42;;;;;;;19.90;10.35;;;;;;;4.92;58.05;101279.72;5053807;28;20498;-86
2022/01/29 06:08:07;;;;;;;18.73;10.70;;;;;;;4.91;58.12;101272.66;5064124;28;20032;-85
2022/01/29 06:10:33;;;;;;;25.23;10.10;;;;;;;5.06;57.70;101281.72;5070540;28;20078;-86
2022/01/29 06:13:11;;;;;;;34.22;11.35;;;;;;;5.13;57.57;101296.47;5072363;28;20025;-85
2022/01/29 06:15:41;;;;;;;27.17;11.30;;;;;;;5.01;57.71;101284.63;5042923;28;20045;-85
2022/01/29 06:18:07;;;;;;;20.10;10.80;;;;;;;5.15;57.68;101298.13;5065882;28;20091;-84
2022/01/29 06:20:33;;;;;;;25.38;13.30;;;;;;;5.14;57.25;101301.72;5057644;28;20056;-86
2022/01/29 06:22:58;;;;;;;28.45;10.77;;;;;;;5.18;57.05;101319.31;5049339;28;20085;-88
2022/01/29 06:25:24;;;;;;;36.50;14.57;;;;;;;5.10;57.57;101309.97;5020006;28;20033;-85
2022/01/29 06:27:50;;;;;;;25.35;12.32;;;;;;;5.12;57.39;101308.94;5057035;28;20030;-89
2022/01/29 06:30:15;;;;;;;24.55;11.60;;;;;;;5.15;57.28;101306.13;5021600;28;20486;-88
2022/01/29 06:32:42;;;;;;;20.65;11.07;;;;;;;5.25;57.15;101315.41;5039157;28;20029;-87
2022/01/29 06:35:07;;;;;;;21.85;10.38;;;;;;;5.40;56.90;101336.00;5037032;28;20029;-88
2022/01/29 06:37:35;;;;;;;24.17;11.73;;;;;;;5.35;56.61;101319.34;5036975;28;20025;-88
2022/01/29 06:40:00;;;;;;;31.02;13.52;;;;;;;5.52;56.52;101333.66;5019233;28;20025;-84
2022/01/29 06:42:26;;;;;;;38.22;20.15;;;;;;;5.44;56.25;101326.91;5031854;28;20098;-82
2022/01/29 06:44:53;;;;;;;39.70;16.45;;;;;;;5.50;56.49;101331.09;5056032;28;20028;-85
2022/01/29 06:47:20;;;;;;;45.90;20.60;;;;;;;5.48;56.18;101328.47;5056141;28;20479;-82
2022/01/29 06:49:46;;;;;;;35.97;17.67;;;;;;;5.62;56.22;101341.16;5037762;28;20040;-81
2022/01/29 06:52:11;;;;;;;25.77;13.23;;;;;;;5.66;56.04;101341.84;5037408;28;20037;-83
2022/01/29 06:54:37;;;;;;;36.90;14.43;;;;;;;5.58;55.87;101344.03;5038429;28;20091;-82
2022/01/29 06:57:02;;;;;;;25.55;12.73;;;;;;;5.59;55.93;101343.09;5057619;28;20131;-85
2022/01/29 06:59:28;;;;;;;33.97;14.25;;;;;;;5.57;55.89;101358.31;5042547;28;20029;-92
2022/01/29 07:01:53;;;;;;;31.20;14.23;;;;;;;5.59;56.30;101367.13;5022801;28;20041;-83
2022/01/29 07:04:19;;;;;;;34.05;15.18;;;;;;;5.55;56.25;101368.19;5037528;28;20025;-83
2022/01/29 07:06:45;;;;;;;43.35;18.83;;;;;;;5.56;56.40;101376.16;5055784;28;20033;-83
2022/01/29 07:09:12;;;;;;;31.88;14.90;;;;;;;5.64;56.24;101378.41;5039838;28;20045;-83
2022/01/29 07:11:37;;;;;;;32.38;17.50;;;;;;;5.68;56.29;101372.88;5051953;28;20095;-82
2022/01/29 07:14:03;;;;;;;29.65;14.95;;;;;;;5.70;55.94;101384.31;5035447;28;20032;-82
2022/01/29 07:16:34;;;;;;;35.95;17.45;;;;;;;5.63;56.24;101379.34;5039855;28;20888;-83
2022/01/29 07:19:01;;;;;;;44.58;19.05;;;;;;;5.72;56.51;101394.94;5054652;28;20059;-82
2022/01/29 07:21:27;;;;;;;43.03;19.77;;;;;;;5.77;56.64;101406.25;5039845;28;20035;-93
2022/01/29 07:23:52;;;;;;;30.70;17.42;;;;;;;5.77;56.46;101388.44;5042536;28;20168;-92
2022/01/29 07:26:18;;;;;;;35.33;16.02;;;;;;;5.82;56.31;101391.72;5068292;28;20037;-88
2022/01/29 07:28:44;;;;;;;36.38;15.25;;;;;;;5.94;56.47;101400.97;5049479;28;20118;-89
2022/01/29 07:31:11;;;;;;;29.25;16.30;;;;;;;5.92;56.17;101397.50;5041110;28;20114;-90
2022/01/29 07:33:38;;;;;;;32.50;16.92;;;;;;;5.98;56.13;101392.75;5043562;28;20024;-86
2022/01/29 07:36:04;;;;;;;34.83;16.92;;;;;;;6.13;55.76;101407.13;5041643;28;20067;-91
2022/01/29 07:38:31;;;;;;;39.55;17.38;;;;;;;6.30;56.13;101417.78;5013618;28;20155;-79
2022/01/29 07:40:57;;;;;;;39.47;16.15;;;;;;;6.36;55.39;101424.66;5055218;28;20033;-80
2022/01/29 07:43:24;;;;;;;31.10;13.85;;;;;;;6.39;55.31;101417.31;5038567;28;20029;-79
2022/01/29 07:45:49;;;;;;;31.80;14.25;;;;;;;6.40;55.28;101416.38;5053020;28;20021;-82
2022/01/29 07:48:15;;;;;;;35.10;14.25;;;;;;;6.54;55.45;101418.34;5025841;28;20103;-81
2022/01/29 07:50:42;;;;;;;51.20;17.50;;;;;;;6.59;55.20;101421.66;5061069;28;20029;-79
2022/01/29 07:53:07;;;;;;;31.73;17.80;;;;;;;6.62;54.93;101409.94;5055506;28;20037;-80
2022/01/29 07:55:34;;;;;;;26.73;14.00;;;;;;;6.70;54.58;101410.38;5019537;28;20078;-83
2022/01/29 07:58:01;;;;;;;21.38;10.57;;;;;;;6.62;54.98;101399.22;5054171;28;20036;-80
2022/01/29 08:00:29;;;;;;;20.60;9.73;;;;;;;6.69;54.58;101412.22;5054047;28;20035;-80
2022/01/29 08:02:56;;;;;;;23.67;11.90;;;;;;;6.61;54.68;101418.88;5054274;28;20029;-82
2022/01/29 08:05:22;;;;;;;20.60;11.10;;;;;;;6.55;54.62;101404.03;5052764;28;20025;-82
2022/01/29 08:07:47;;;;;;;24.25;10.40;;;;;;;6.53;55.21;101422.84;5035375;28;20032;-81
2022/01/29 08:10:13;;;;;;;15.30;9.10;;;;;;;6.46;55.21;101413.41;5036606;28;20509;-87
2022/01/29 08:12:38;;;;;;;19.48;9.18;;;;;;;6.48;55.80;101427.53;5055611;28;20033;-90
2022/01/29 08:15:06;;;;;;;18.08;9.27;;;;;;;6.57;55.48;101424.38;5054352;28;20037;-85
2022/01/29 08:17:33;;;;;;;26.73;11.57;;;;;;;6.77;55.27;101430.50;5054437;28;20120;-83
2022/01/29 08:20:00;;;;;;;39.75;11.02;;;;;;;6.85;54.80;101412.25;5037606;28;20096;-82
2022/01/29 08:22:25;;;;;;;27.10;11.57;;;;;;;6.92;53.86;101417.19;5054002;28;20035;-81
2022/01/29 08:24:52;;;;;;;24.80;10.32;;;;;;;7.25;53.56;101427.84;5053419;28;20025;-80
2022/01/29 08:27:18;;;;;;;25.02;13.63;;;;;;;7.44;53.45;101433.91;5025058;28;20487;-84
2022/01/29 08:29:47;;;;;;;17.40;8.30;;;;;;;7.58;52.08;101435.84;5053901;28;20028;-82
2022/01/29 08:32:14;;;;;;;14.88;8.60;;;;;;;7.68;51.54;101437.03;5042572;28;20036;-86
2022/01/29 08:34:46;;;;;;;15.70;9.50;;;;;;;7.62;51.95;101424.88;5060081;28;20305;-86
2022/01/29 08:37:11;;;;;;;23.77;8.80;;;;;;;7.75;51.82;101437.56;5058125;28;20060;-87
2022/01/29 08:39:36;;;;;;;17.05;7.88;;;;;;;7.90;51.30;101442.91;5050556;28;20473;-83
2022/01/29 08:42:03;;;;;;;12.00;7.00;;;;;;;8.09;50.89;101442.72;5040636;28;20026;-79
2022/01/29 08:44:29;;;;;;;26.40;10.93;;;;;;;8.20;50.19;101453.66;5017827;28;20017;-77
2022/01/29 08:46:56;;;;;;;16.00;9.00;;;;;;;8.29;49.33;101455.81;5046441;28;20124;-82
2022/01/29 08:49:23;;;;;;;19.15;8.38;;;;;;;8.43;47.98;101439.81;5035390;28;20032;-81
2022/01/29 08:51:49;;;;;;;15.65;6.68;;;;;;;8.55;48.04;101457.84;5044976;28;20032;-87
2022/01/29 08:54:14;;;;;;;13.02;6.30;;;;;;;8.59;47.89;101448.63;5053086;28;20036;-89
2022/01/29 08:56:41;;;;;;;13.25;6.43;;;;;;;8.77;47.20;101440.47;5041452;28;20044;-85
2022/01/29 08:59:06;;;;;;;14.40;7.70;;;;;;;8.90;47.06;101455.69;5034999;28;20508;-83
2022/01/29 09:01:32;;;;;;;14.48;7.32;;;;;;;8.96;47.21;101452.63;5053898;28;20079;-85
2022/01/29 09:04:00;;;;;;;20.48;8.15;;;;;;;9.13;47.01;101459.66;5034952;28;20444;-77
2022/01/29 09:06:26;;;;;;;17.73;7.78;;;;;;;9.23;46.68;101444.72;5057980;28;20028;-79
2022/01/29 09:08:54;;;;;;;16.80;7.15;;;;;;;9.40;45.36;101451.69;5054528;28;20501;-79
2022/01/29 09:11:21;;;;;;;32.60;8.02;;;;;;;9.34;45.21;101444.03;5053158;28;20552;-79
2022/01/29 09:13:47;;;;;;;11.35;6.32;;;;;;;9.57;44.49;101444.28;5051995;28;20028;-79
2022/01/29 09:16:13;;;;;;;14.10;5.57;;;;;;;9.64;43.90;101450.97;5034479;28;20029;-77
2022/01/29 09:18:39;;;;;;;14.95;5.45;;;;;;;9.75;43.72;101456.50;5034601;28;20170;-81
2022/01/29 09:21:05;;;;;;;13.70;5.07;;;;;;;9.95;44.27;101454.34;5035037;28;20025;-79
2022/01/29 09:23:32;;;;;;;18.45;6.95;;;;;;;10.13;42.92;101445.97;5034598;28;20394;-82
2022/01/29 09:25:58;;;;;;;15.45;5.60;;;;;;;10.29;42.67;101448.50;5053023;28;20028;-78
2022/01/29 09:28:24;;;;;;;10.18;5.30;;;;;;;10.33;41.76;101453.59;5041003;28;20025;-80
2022/01/29 09:30:52;;;;;;;20.25;5.75;;;;;;;10.48;41.50;101459.75;5034524;28;20026;-81
2022/01/29 09:33:18;;;;;;;6.40;3.33;;;;;;;10.57;40.02;101450.19;5053289;28;20029;-79
2022/01/29 09:35:44;;;;;;;6.05;3.42;;;;;;;10.57;40.07;101437.63;5050117;28;20017;-79
2022/01/29 09:38:12;;;;;;;12.43;4.13;;;;;;;10.68;39.92;101439.56;5011800;28;20041;-80
2022/01/29 09:40:40;;;;;;;6.35;4.13;;;;;;;10.88;39.92;101441.75;5038448;28;20049;-79
2022/01/29 09:43:08;;;;;;;15.63;4.18;;;;;;;10.93;39.27;101444.97;5006524;28;20024;-78
2022/01/29 09:45:37;;;;;;;7.43;3.90;;;;;;;10.98;39.65;101437.41;5031818;28;20079;-82
2022/01/29 09:48:03;;;;;;;8.57;4.70;;;;;;;10.98;40.09;101437.41;5052204;28;20059;-81
2022/01/29 09:50:37;;;;;;;11.30;4.03;;;;;;;11.02;39.39;101440.75;5044440;28;20044;-80
2022/01/29 09:53:04;;;;;;;7.30;4.32;;;;;;;10.97;39.86;101435.72;5014568;28;20033;-82
2022/01/29 09:55:30;;;;;;;23.65;5.78;;;;;;;10.92;39.45;101438.72;5014558;28;20071;-81
2022/01/29 09:57:57;;;;;;;22.38;5.53;;;;;;;10.90;39.92;101434.41;5032022;28;20455;-81
2022/01/29 10:00:23;;;;;;;7.97;4.65;;;;;;;10.82;40.06;101431.41;5036182;28;20017;-80
2022/01/29 10:03:10;;;;;;;16.63;5.63;;;;;;;10.83;40.30;101443.88;5048972;28;20717;-80
2022/01/29 10:05:38;;;;;;;10.65;6.20;;;;;;;10.81;40.06;101437.75;5033626;28;20057;-81
2022/01/29 10:08:04;;;;;;;8.10;4.78;;;;;;;10.74;40.25;101429.22;5052114;28;20031;-83
2022/01/29 10:10:38;;;;;;;12.10;4.53;;;;;;;10.71;40.01;101428.56;5034583;28;20025;-80
2022/01/29 10:13:20;;;;;;;11.25;5.57;;;;;;;10.72;39.53;101427.63;5034337;28;20108;-78
2022/01/29 10:15:46;;;;;;;7.53;4.68;;;;;;;10.71;39.77;101424.06;5052393;28;20056;-78
2022/01/29 10:18:21;;;;;;;12.95;6.00;;;;;;;10.72;40.34;101420.41;5034336;28;20064;-84
2022/01/29 10:20:46;;;;;;;7.72;4.15;;;;;;;10.70;39.19;101432.25;5034702;28;20086;-83
2022/01/29 10:23:13;;;;;;;15.27;4.15;;;;;;;10.60;38.85;101432.03;5052735;28;20099;-78
2022/01/29 10:25:42;;;;;;;8.05;4.15;;;;;;;10.60;38.85;101426.66;5051851;28;20048;-85
2022/01/29 10:28:14;;;;;;;9.45;4.38;;;;;;;10.47;38.61;101427.56;5036282;28;20073;-82
2022/01/29 10:30:48;;;;;;;16.63;3.97;;;;;;;10.59;38.34;101426.72;5053280;28;20017;-84
2022/01/29 10:33:26;;;;;;;4.30;2.78;;;;;;;10.65;37.19;101419.09;5051913;28;20029;-83
2022/01/29 10:35:59;;;;;;;24.83;9.65;;;;;;;10.63;37.27;101421.06;5033182;28;20472;-81
2022/01/29 10:38:25;;;;;;;12.07;4.70;;;;;;;10.51;36.88;101416.50;5032239;28;20424;-82
2022/01/29 10:41:13;;;;;;;7.00;3.90;;;;;;;10.42;37.54;101419.84;5033099;28;20049;-83
2022/01/29 10:44:19;;;;;;;9.32;2.72;;;;;;;10.41;37.25;101415.41;5033351;28;20025;-82
2022/01/29 10:46:53;;;;;;;6.38;2.47;;;;;;;10.51;38.06;101403.06;5043275;28;20071;-82
2022/01/29 10:49:23;;;;;;;7.45;3.08;;;;;;;10.65;37.72;101402.97;5043208;28;20032;-92
2022/01/29 10:52:08;;;;;;;16.30;3.22;;;;;;;10.77;37.57;101407.50;5016907;28;20035;-89
2022/01/29 10:54:37;;;;;;;16.10;7.03;;;;;;;10.84;37.35;101402.53;5033466;28;20224;-81
2022/01/29 10:57:08;;;;;;;16.77;5.95;;;;;;;10.90;37.15;101400.28;5052705;28;20049;-79
2022/01/29 10:59:58;;;;;;;13.27;3.63;;;;;;;10.94;36.53;101395.56;5021672;28;20472;-78
2022/01/29 11:02:27;;;;;;;11.45;4.57;;;;;;;10.95;36.28;101388.34;5013413;28;20029;-85
2022/01/29 11:04:52;;;;;;;10.63;4.97;;;;;;;10.92;36.47;101401.03;5034585;28;20025;-88
2022/01/29 11:07:19;;;;;;;26.63;9.35;;;;;;;10.92;36.67;101387.56;5017232;28;20055;-83
2022/01/29 11:09:47;;;;;;;40.40;7.13;;;;;;;11.09;36.52;101394.47;5018906;28;20025;-85
2022/01/29 11:12:18;;;;;;;25.30;8.90;;;;;;;11.29;36.31;101390.31;5009021;28;20033;-80
2022/01/29 11:14:46;;;;;;;11.10;5.47;;;;;;;11.43;35.99;101393.75;5047918;28;20053;-79
2022/01/29 11:17:15;;;;;;;25.60;6.43;;;;;;;11.53;35.71;101385.00;5018237;28;20037;-80
2022/01/29 11:19:41;;;;;;;7.65;2.85;;;;;;;11.67;35.40;101390.22;5036226;28;20100;-80
2022/01/29 11:22:09;;;;;;;11.48;3.78;;;;;;;11.83;35.25;101394.38;5040483;28;20025;-88
2022/01/29 11:24:37;;;;;;;17.58;4.68;;;;;;;11.91;35.88;101375.84;5026151;28;20127;-87
2022/01/29 11:27:41;;;;;;;7.25;3.45;;;;;;;12.12;34.30;101388.66;5019952;28;20116;-87
2022/01/29 11:30:09;;;;;;;19.58;3.13;;;;;;;11.82;34.46;101392.69;5038959;28;20077;-86
2022/01/29 11:32:40;;;;;;;9.45;2.92;;;;;;;11.68;34.09;101373.94;5037237;28;20105;-89
2022/01/29 11:35:15;;;;;;;8.60;2.83;;;;;;;11.65;34.65;101386.81;5034767;28;20083;-93
2022/01/29 11:37:49;;;;;;;18.08;3.90;;;;;;;11.81;35.03;101380.19;5040638;28;20031;-83
2022/01/29 11:40:30;;;;;;;16.48;4.28;;;;;;;11.97;34.27;101380.75;5044203;28;20026;-84
2022/01/29 11:43:09;;;;;;;9.20;4.78;;;;;;;11.86;34.83;101374.47;5029665;28;20049;-94
2022/01/29 11:45:41;;;;;;;24.13;6.95;;;;;;;11.83;35.38;101383.59;5032011;28;20022;-82